Time;durP1;ratioP1;P1;durP2;ratioP2;P2;SDS_P1;SDS_P2;PMS_P1;PMS_P2;Temp;Humidity;BMP_temperature;BMP_pressure;BME280_temperature;BME280_humidity;BME280_pressure;Samples;Min_cycle;Max_cycle;Signal;HPM_P1;HPM_P2
2023/08/05 00:01:06;;;;;;;2.17;1.15;;;21.10;70.80;;;;;;5025592;28;20457;-53
2023/08/05 00:03:31;;;;;;;2.25;0.90;;;21.10;70.80;;;;;;5027499;28;20033;-50
2023/08/05 00:05:57;;;;;;;2.65;1.25;;;21.10;70.70;;;;;;5027832;28;20402;-54
2023/08/05 00:08:24;;;;;;;2.30;1.30;;;21.10;70.70;;;;;;5029929;28;20053;-49
2023/08/05 00:10:50;;;;;;;0.82;0.80;;;21.10;70.70;;;;;;5027775;28;20029;-52
2023/08/05 00:13:16;;;;;;;1.40;0.98;;;21.10;70.70;;;;;;5028830;28;20124;-48
2023/08/05 00:15:41;;;;;;;1.58;0.98;;;21.10;70.70;;;;;;5027757;28;20108;-48
2023/08/05 00:18:07;;;;;;;1.20;1.10;;;21.10;70.80;;;;;;5023024;28;20034;-52
2023/08/05 00:20:32;;;;;;;1.33;1.08;;;21.10;70.80;;;;;;5026199;28;20041;-52
2023/08/05 00:22:58;;;;;;;2.95;1.00;;;21.10;70.80;;;;;;5024360;28;20058;-50
2023/08/05 00:25:23;;;;;;;1.95;1.08;;;21.10;70.70;;;;;;5026093;28;20033;-52
2023/08/05 00:27:49;;;;;;;1.70;1.13;;;21.10;70.80;;;;;;5024952;28;20546;-55
2023/08/05 00:30:14;;;;;;;1.10;0.93;;;21.10;70.60;;;;;;5027794;28;20060;-54
2023/08/05 00:32:40;;;;;;;1.40;1.00;;;21.10;70.60;;;;;;5025885;28;20029;-50
2023/08/05 00:35:06;;;;;;;1.08;0.90;;;21.10;70.80;;;;;;5025361;28;20094;-51
2023/08/05 00:37:33;;;;;;;1.63;1.08;;;21.10;70.70;;;;;;5026391;28;20022;-49
2023/08/05 00:39:59;;;;;;;2.70;1.27;;;21.10;70.70;;;;;;5030016;28;20021;-51
2023/08/05 00:42:27;;;;;;;1.33;1.05;;;21.10;70.70;;;;;;5029359;28;20029;-55
2023/08/05 00:44:53;;;;;;;2.05;1.00;;;21.10;70.80;;;;;;5026471;28;20167;-55
2023/08/05 00:47:19;;;;;;;4.22;1.38;;;21.10;70.60;;;;;;5024258;28;20120;-55
2023/08/05 00:49:51;;;;;;;3.28;1.20;;;21.10;70.60;;;;;;5026987;28;20170;-48
2023/08/05 00:52:18;;;;;;;0.80;0.77;;;21.10;70.60;;;;;;5027415;28;20037;-51
2023/08/05 00:54:44;;;;;;;1.30;1.08;;;21.10;70.60;;;;;;5029023;28;20029;-53
2023/08/05 00:57:11;;;;;;;1.95;1.00;;;21.10;70.70;;;;;;5023989;28;20037;-55
2023/08/05 00:59:37;;;;;;;1.02;0.90;;;21.10;70.70;;;;;;5025356;28;20017;-51
2023/08/05 01:02:02;;;;;;;1.77;1.23;;;21.10;71.20;;;;;;5027144;28;20392;-48
2023/08/05 01:04:28;;;;;;;1.63;0.80;;;21.00;70.60;;;;;;5041967;22;20037;-51
2023/08/05 01:06:55;;;;;;;1.02;0.80;;;21.10;70.70;;;;;;5032461;28;20094;-50
2023/08/05 01:09:21;;;;;;;1.27;1.00;;;21.10;70.70;;;;;;5028143;28;20521;-51
2023/08/05 01:11:47;;;;;;;1.27;0.73;;;21.00;70.60;;;;;;5035515;28;20044;-51
2023/08/05 01:14:12;;;;;;;1.63;1.48;;;21.00;70.60;;;;;;5035188;28;20055;-52
2023/08/05 01:16:38;;;;;;;1.90;1.00;;;21.00;70.60;;;;;;5034444;28;20120;-51
2023/08/05 01:19:08;;;;;;;0.77;0.70;;;21.00;70.70;;;;;;5033747;28;20061;-53
2023/08/05 01:22:08;;;;;;;1.10;0.80;;;21.10;70.60;;;;;;5030739;28;20041;-48
2023/08/05 01:24:54;;;;;;;1.77;1.25;;;21.00;70.60;;;;;;5019913;28;20053;-54
2023/08/05 01:27:21;;;;;;;2.80;1.67;;;21.00;70.60;;;;;;5032337;28;20083;-53
2023/08/05 01:29:48;;;;;;;1.35;1.08;;;21.00;70.80;;;;;;5031410;28;20150;-53
2023/08/05 01:32:14;;;;;;;1.30;1.20;;;21.00;70.70;;;;;;5030302;28;20493;-53
2023/08/05 01:34:40;;;;;;;2.30;1.10;;;21.00;70.70;;;;;;5031414;28;20060;-55
2023/08/05 01:37:06;;;;;;;1.42;1.00;;;21.00;70.60;;;;;;5031749;28;20053;-54
2023/08/05 01:39:31;;;;;;;1.30;0.90;;;21.00;70.60;;;;;;5034010;28;20029;-53
2023/08/05 01:41:57;;;;;;;1.75;1.10;;;21.00;70.60;;;;;;5035506;28;20080;-53
2023/08/05 01:44:22;;;;;;;1.02;0.80;;;21.00;70.70;;;;;;5033312;28;20021;-53
2023/08/05 01:46:48;;;;;;;2.88;1.20;;;21.00;70.70;;;;;;5035373;28;20406;-50
2023/08/05 01:49:14;;;;;;;1.10;1.00;;;21.00;70.60;;;;;;5036248;28;20025;-51
2023/08/05 01:51:39;;;;;;;0.80;0.77;;;21.00;70.70;;;;;;5039359;28;20111;-51
2023/08/05 01:54:05;;;;;;;1.42;1.02;;;21.00;70.60;;;;;;5039500;28;20029;-53
2023/08/05 01:56:30;;;;;;;1.00;0.95;;;21.00;70.60;;;;;;5034388;28;20436;-54
2023/08/05 01:58:56;;;;;;;2.95;1.02;;;21.00;70.70;;;;;;5035682;28;20047;-53
2023/08/05 02:01:21;;;;;;;2.95;0.88;;;21.00;70.60;;;;;;5035977;28;20116;-51
2023/08/05 02:03:47;;;;;;;0.75;0.75;;;21.00;70.60;;;;;;5031198;28;20041;-53
2023/08/05 02:06:14;;;;;;;1.20;0.85;;;21.00;70.60;;;;;;5029891;28;20135;-54
2023/08/05 02:08:39;;;;;;;1.15;0.80;;;21.00;70.70;;;;;;5038866;28;20113;-49
2023/08/05 02:11:05;;;;;;;0.95;0.80;;;21.00;70.70;;;;;;5037269;28;20469;-55
2023/08/05 02:13:31;;;;;;;1.73;1.15;;;21.00;70.70;;;;;;5035089;28;20529;-53
2023/08/05 02:15:56;;;;;;;1.63;0.95;;;21.00;70.80;;;;;;5037607;28;20261;-54
2023/08/05 02:18:22;;;;;;;0.98;0.88;;;21.00;70.80;;;;;;5034986;28;20730;-52
2023/08/05 02:20:47;;;;;;;1.13;0.90;;;21.00;70.70;;;;;;5034355;28;20042;-53
2023/08/05 02:23:13;;;;;;;1.15;0.90;;;21.00;70.70;;;;;;5038028;28;20041;-53
2023/08/05 02:25:38;;;;;;;0.90;0.80;;;21.00;70.60;;;;;;5038897;28;20033;-51
2023/08/05 02:28:04;;;;;;;1.25;0.93;;;21.00;70.70;;;;;;5036047;28;20037;-52
2023/08/05 02:30:29;;;;;;;1.63;1.10;;;21.00;70.60;;;;;;5033805;28;20097;-54
2023/08/05 02:32:55;;;;;;;1.17;1.02;;;21.00;70.60;;;;;;5032595;28;20498;-53
2023/08/05 02:35:20;;;;;;;1.85;1.10;;;21.00;70.60;;;;;;5036238;28;20033;-50
2023/08/05 02:37:46;;;;;;;2.33;0.80;;;21.00;70.60;;;;;;5038506;28;20785;-53
2023/08/05 02:40:11;;;;;;;0.98;0.90;;;21.00;70.70;;;;;;5036131;28;20422;-55
2023/08/05 02:42:37;;;;;;;1.45;1.10;;;21.00;70.60;;;;;;5033043;28;20033;-55
2023/08/05 02:45:03;;;;;;;1.15;1.00;;;21.00;70.60;;;;;;5032990;28;20030;-49
2023/08/05 02:47:29;;;;;;;0.98;0.93;;;21.00;70.60;;;;;;5035836;28;20460;-51
2023/08/05 02:49:54;;;;;;;1.60;0.90;;;21.00;70.60;;;;;;5036031;28;20029;-52
2023/08/05 02:52:20;;;;;;;1.08;1.00;;;21.00;70.60;;;;;;5039480;28;20108;-54
2023/08/05 02:54:45;;;;;;;2.15;1.10;;;21.00;70.80;;;;;;5038244;28;20053;-53
2023/08/05 02:57:11;;;;;;;1.95;0.93;;;21.00;70.70;;;;;;5033161;28;20030;-50
2023/08/05 02:59:37;;;;;;;0.82;0.82;;;21.00;70.80;;;;;;5036962;28;20033;-53
2023/08/05 03:02:03;;;;;;;1.33;0.88;;;21.00;70.80;;;;;;5033965;28;20205;-49
2023/08/05 03:04:28;;;;;;;0.80;0.80;;;21.00;70.70;;;;;;5037734;28;20762;-50
2023/08/05 03:06:54;;;;;;;0.80;0.80;;;21.00;70.60;;;;;;5035420;28;20029;-53
2023/08/05 03:09:19;;;;;;;1.30;1.05;;;21.00;70.80;;;;;;5034655;28;20068;-50
2023/08/05 03:11:45;;;;;;;1.15;0.90;;;21.00;70.70;;;;;;5034504;28;20512;-53
2023/08/05 03:14:10;;;;;;;1.10;1.00;;;21.00;70.70;;;;;;5033420;28;20693;-54
2023/08/05 03:16:37;;;;;;;1.75;1.02;;;21.00;70.80;;;;;;5034601;28;20491;-50
2023/08/05 03:19:02;;;;;;;2.67;1.02;;;21.00;70.70;;;;;;5030539;28;20048;-51
2023/08/05 03:21:28;;;;;;;1.30;1.10;;;21.00;70.70;;;;;;5031911;28;20029;-61
2023/08/05 03:23:53;;;;;;;1.10;0.95;;;21.00;70.80;;;;;;5035665;28;20075;-51
2023/08/05 03:26:20;;;;;;;1.75;1.20;;;21.00;70.80;;;;;;5032109;28;20087;-53
2023/08/05 03:28:45;;;;;;;1.88;1.10;;;21.00;70.80;;;;;;5032696;28;20025;-52
2023/08/05 03:31:11;;;;;;;1.38;1.23;;;21.00;70.70;;;;;;5032791;28;20563;-53
2023/08/05 03:33:36;;;;;;;1.73;0.90;;;21.00;70.70;;;;;;5036933;28;20037;-50
2023/08/05 03:36:02;;;;;;;3.35;1.23;;;21.00;70.70;;;;;;5035253;28;20061;-51
2023/08/05 03:38:27;;;;;;;1.20;1.00;;;20.90;70.70;;;;;;5036427;28;20033;-55
2023/08/05 03:40:53;;;;;;;1.00;0.90;;;21.00;70.80;;;;;;5032069;28;20029;-53
2023/08/05 03:43:18;;;;;;;2.22;1.33;;;21.00;70.80;;;;;;5027877;28;20056;-51
2023/08/05 03:45:51;;;;;;;1.25;0.90;;;21.00;70.80;;;;;;5036990;28;20091;-51
2023/08/05 03:48:17;;;;;;;1.30;1.00;;;21.00;70.90;;;;;;5032087;28;20033;-52
2023/08/05 03:50:42;;;;;;;1.23;1.13;;;20.90;70.70;;;;;;5017020;28;20049;-51
2023/08/05 03:53:08;;;;;;;1.98;1.20;;;21.00;70.80;;;;;;5034058;28;20071;-51
2023/08/05 03:55:33;;;;;;;1.50;1.15;;;20.90;70.70;;;;;;5031141;28;20395;-53
2023/08/05 03:57:59;;;;;;;2.00;1.10;;;20.90;70.90;;;;;;5034530;28;20029;-52
2023/08/05 04:00:24;;;;;;;1.20;1.10;;;20.90;70.70;;;;;;5037542;28;20238;-53
2023/08/05 04:02:51;;;;;;;1.55;0.98;;;20.90;70.70;;;;;;5035039;28;20147;-53
2023/08/05 04:05:16;;;;;;;1.15;1.05;;;20.90;70.80;;;;;;5033281;28;20040;-54
2023/08/05 04:07:42;;;;;;;1.40;1.08;;;21.00;70.80;;;;;;5033187;28;20392;-52
2023/08/05 04:10:08;;;;;;;1.02;0.93;;;20.90;70.70;;;;;;5030855;28;20541;-53
2023/08/05 04:12:35;;;;;;;1.38;1.20;;;21.00;70.80;;;;;;5032967;28;20029;-52
2023/08/05 04:15:02;;;;;;;1.20;1.08;;;20.90;70.80;;;;;;5038822;28;20181;-54
2023/08/05 04:17:28;;;;;;;1.48;1.10;;;20.90;70.70;;;;;;5032638;28;20026;-53
2023/08/05 04:19:53;;;;;;;1.38;1.27;;;21.00;70.70;;;;;;5031500;28;20037;-49
2023/08/05 04:22:21;;;;;;;1.60;1.15;;;20.90;70.70;;;;;;5032034;28;20083;-52
2023/08/05 04:24:47;;;;;;;1.50;1.20;;;20.90;70.80;;;;;;5034534;28;20333;-50
2023/08/05 04:27:12;;;;;;;1.42;1.33;;;20.90;70.70;;;;;;5033760;28;20057;-50
2023/08/05 04:29:38;;;;;;;1.67;1.05;;;20.90;70.70;;;;;;5036617;28;20100;-51
2023/08/05 04:32:04;;;;;;;2.25;1.30;;;20.90;70.80;;;;;;5038292;28;20040;-51
2023/08/05 04:34:35;;;;;;;1.30;1.20;;;20.90;70.70;;;;;;5034018;28;20036;-50
2023/08/05 04:37:21;;;;;;;1.58;1.17;;;20.90;70.70;;;;;;5034041;28;20052;-53
2023/08/05 04:39:47;;;;;;;1.52;1.42;;;20.90;70.70;;;;;;5036492;28;20436;-51
2023/08/05 04:42:13;;;;;;;2.40;1.35;;;21.00;70.80;;;;;;5031338;28;20079;-52
2023/08/05 04:44:42;;;;;;;1.75;0.98;;;20.90;70.70;;;;;;5035647;28;20053;-50
2023/08/05 04:47:08;;;;;;;1.35;1.25;;;20.90;70.70;;;;;;5030800;28;20098;-53
2023/08/05 04:49:34;;;;;;;1.48;1.30;;;20.90;70.60;;;;;;5034401;28;20763;-54
2023/08/05 04:51:59;;;;;;;1.55;1.20;;;20.90;70.70;;;;;;5030623;28;20143;-54
2023/08/05 04:54:25;;;;;;;1.33;1.23;;;20.90;70.60;;;;;;5033403;28;20124;-53
2023/08/05 04:56:51;;;;;;;1.50;1.27;;;20.90;70.40;;;;;;5033962;28;20040;-55
2023/08/05 04:59:16;;;;;;;1.50;1.05;;;20.90;70.50;;;;;;5031266;28;20248;-54
2023/08/05 05:01:42;;;;;;;2.58;1.33;;;20.90;70.40;;;;;;5032177;28;20059;-52
2023/08/05 05:04:07;;;;;;;2.00;1.42;;;20.90;70.40;;;;;;5030636;28;20532;-54
2023/08/05 05:06:33;;;;;;;3.28;1.40;;;21.00;70.30;;;;;;5031368;28;20670;-51
2023/08/05 05:08:59;;;;;;;1.60;1.33;;;20.90;70.20;;;;;;5029657;28;20087;-61
2023/08/05 05:11:24;;;;;;;1.30;1.20;;;20.90;70.50;;;;;;5030510;28;20731;-52
2023/08/05 05:13:52;;;;;;;1.63;1.40;;;20.90;70.50;;;;;;5031153;28;20064;-55
2023/08/05 05:16:18;;;;;;;2.35;1.20;;;20.90;70.60;;;;;;5034885;28;20875;-52
2023/08/05 05:18:44;;;;;;;1.73;1.40;;;20.90;70.40;;;;;;5032122;28;20581;-51
2023/08/05 05:21:10;;;;;;;2.15;1.30;;;20.90;70.40;;;;;;5033107;28;20034;-50
2023/08/05 05:23:35;;;;;;;1.50;1.40;;;20.90;70.40;;;;;;5035431;28;20027;-50
2023/08/05 05:26:01;;;;;;;2.75;1.20;;;20.90;70.30;;;;;;5038147;28;20107;-51
2023/08/05 05:28:26;;;;;;;1.45;1.35;;;20.90;70.30;;;;;;5038041;28;20087;-53
2023/08/05 05:30:52;;;;;;;2.30;1.33;;;20.90;70.20;;;;;;5035517;28;20395;-53
2023/08/05 05:33:18;;;;;;;1.80;1.10;;;20.90;70.30;;;;;;5034945;28;20034;-50
2023/08/05 05:35:43;;;;;;;3.10;1.40;;;20.90;70.10;;;;;;5037496;28;20648;-54
2023/08/05 05:38:09;;;;;;;1.40;1.27;;;20.90;70.20;;;;;;5036996;28;20309;-52
2023/08/05 05:40:39;;;;;;;1.60;1.50;;;20.90;70.00;;;;;;5035954;28;20118;-51
2023/08/05 05:43:06;;;;;;;2.42;1.10;;;20.90;70.10;;;;;;5035018;28;20565;-53
2023/08/05 05:45:34;;;;;;;2.13;1.27;;;20.80;70.20;;;;;;5038560;28;20044;-52
2023/08/05 05:47:59;;;;;;;2.17;1.60;;;20.90;70.20;;;;;;5032020;28;20034;-61
2023/08/05 05:50:25;;;;;;;3.15;1.50;;;20.80;69.90;;;;;;5034782;28;20102;-51
2023/08/05 05:52:51;;;;;;;2.60;1.30;;;20.90;70.30;;;;;;5034266;28;20144;-50
2023/08/05 05:55:17;;;;;;;2.53;1.73;;;20.90;70.20;;;;;;5038705;28;20457;-52
2023/08/05 05:57:43;;;;;;;1.85;1.48;;;20.90;70.20;;;;;;5035504;28;20074;-54
2023/08/05 06:00:09;;;;;;;1.60;1.50;;;20.80;70.50;;;;;;5033389;28;20053;-52
2023/08/05 06:02:35;;;;;;;1.85;1.40;;;20.80;70.00;;;;;;5030387;28;20061;-51
2023/08/05 06:05:01;;;;;;;1.43;1.33;;;20.80;70.20;;;;;;5035287;28;20052;-55
2023/08/05 06:07:26;;;;;;;2.42;1.70;;;20.80;70.00;;;;;;5037524;28;20032;-50
2023/08/05 06:09:52;;;;;;;2.92;1.48;;;20.80;69.70;;;;;;5034171;28;20052;-50
2023/08/05 06:12:18;;;;;;;1.80;1.23;;;20.80;70.00;;;;;;5034869;28;20466;-53
2023/08/05 06:14:43;;;;;;;2.75;1.40;;;20.80;70.20;;;;;;5038025;28;20033;-48
2023/08/05 06:17:09;;;;;;;1.60;1.50;;;20.80;70.00;;;;;;5038178;28;20116;-53
2023/08/05 06:19:34;;;;;;;2.10;1.70;;;20.80;70.10;;;;;;5033462;28;20467;-53
2023/08/05 06:22:00;;;;;;;2.67;1.50;;;20.80;69.80;;;;;;5040064;28;20110;-53
2023/08/05 06:24:25;;;;;;;2.47;1.40;;;20.70;70.10;;;;;;5037051;28;20490;-51
2023/08/05 06:26:51;;;;;;;7.00;1.70;;;20.80;70.40;;;;;;5033117;28;20622;-51
2023/08/05 06:29:16;;;;;;;1.65;1.20;;;20.80;70.10;;;;;;5033751;28;20127;-55
2023/08/05 06:31:42;;;;;;;2.22;2.00;;;20.80;70.00;;;;;;5033542;28;20179;-51
2023/08/05 06:34:07;;;;;;;2.05;1.60;;;20.80;69.50;;;;;;5036506;28;20042;-52
2023/08/05 06:36:33;;;;;;;4.05;2.22;;;20.70;69.80;;;;;;5033062;28;20031;-51
2023/08/05 06:38:59;;;;;;;2.47;1.33;;;20.80;69.60;;;;;;5033001;28;20064;-55
2023/08/05 06:41:24;;;;;;;1.98;1.77;;;20.70;70.30;;;;;;5030452;28;20122;-48
2023/08/05 06:43:50;;;;;;;2.15;1.27;;;20.70;70.10;;;;;;5032242;28;20040;-52
2023/08/05 06:46:15;;;;;;;3.30;1.60;;;20.80;70.10;;;;;;5034310;28;20052;-52
2023/08/05 06:48:41;;;;;;;2.88;2.05;;;20.70;69.70;;;;;;5036845;28;20083;-56
2023/08/05 06:51:07;;;;;;;2.78;1.58;;;20.70;70.10;;;;;;5038607;28;20922;-52
2023/08/05 06:53:33;;;;;;;2.45;1.55;;;20.70;70.10;;;;;;5034613;28;20175;-55
2023/08/05 06:56:02;;;;;;;1.50;1.38;;;20.70;70.20;;;;;;5035332;28;20088;-55
2023/08/05 06:58:28;;;;;;;2.33;1.52;;;20.70;70.10;;;;;;5030340;28;20029;-54
2023/08/05 07:00:53;;;;;;;3.17;1.70;;;20.80;70.10;;;;;;5031718;28;20032;-53
2023/08/05 07:03:19;;;;;;;1.58;1.27;;;20.80;69.80;;;;;;5031551;28;20534;-52
2023/08/05 07:05:45;;;;;;;2.10;1.65;;;20.80;69.80;;;;;;5033941;28;20127;-54
2023/08/05 07:08:10;;;;;;;2.15;1.77;;;20.80;70.30;;;;;;5030866;28;20030;-52
2023/08/05 07:10:36;;;;;;;3.08;1.73;;;20.80;70.30;;;;;;5031614;28;20129;-53
2023/08/05 07:13:05;;;;;;;1.95;1.55;;;20.80;70.30;;;;;;5031469;28;20548;-52
2023/08/05 07:15:34;;;;;;;4.18;2.33;;;20.80;69.80;;;;;;5034615;28;20083;-51
2023/08/05 07:18:00;;;;;;;1.98;1.88;;;20.70;70.70;;;;;;5038714;28;20044;-55
2023/08/05 07:20:26;;;;;;;3.83;1.70;;;20.70;70.40;;;;;;5036250;28;20040;-53
2023/08/05 07:22:51;;;;;;;6.22;2.35;;;20.70;70.20;;;;;;5033757;28;20383;-51
2023/08/05 07:25:17;;;;;;;4.15;2.00;;;20.70;71.00;;;;;;5029049;28;20037;-51
2023/08/05 07:27:42;;;;;;;7.45;2.50;;;20.70;71.10;;;;;;5027888;28;20034;-51
2023/08/05 07:30:09;;;;;;;3.75;2.60;;;20.80;70.80;;;;;;5027701;28;20029;-52
2023/08/05 07:32:34;;;;;;;6.07;2.40;;;20.80;71.10;;;;;;5030261;28;20779;-52
2023/08/05 07:35:00;;;;;;;4.88;2.10;;;20.70;71.30;;;;;;5030918;28;20097;-52
2023/08/05 07:37:25;;;;;;;3.17;2.20;;;20.70;71.00;;;;;;5032556;28;20100;-55
2023/08/05 07:39:51;;;;;;;2.95;2.03;;;20.80;70.70;;;;;;5031115;28;20036;-54
2023/08/05 07:42:19;;;;;;;3.75;2.30;;;20.70;71.30;;;;;;5031478;28;20494;-53
2023/08/05 07:44:46;;;;;;;6.25;4.72;;;20.80;71.50;;;;;;5034419;28;20035;-52
2023/08/05 07:47:12;;;;;;;12.07;6.15;;;20.80;71.40;;;;;;5037090;28;20033;-54
2023/08/05 07:49:37;;;;;;;15.45;9.13;;;20.80;71.50;;;;;;5029730;28;20486;-51
2023/08/05 07:52:06;;;;;;;11.55;8.20;;;20.80;71.90;;;;;;5035092;28;20708;-52
2023/08/05 07:54:32;;;;;;;14.30;9.13;;;20.70;70.60;;;;;;5030474;28;20075;-51
2023/08/05 07:56:58;;;;;;;16.20;9.20;;;20.70;71.70;;;;;;5032667;28;20674;-51
2023/08/05 07:59:25;;;;;;;14.38;7.55;;;20.70;72.30;;;;;;5030626;28;20411;-52
2023/08/05 08:01:53;;;;;;;11.43;5.82;;;20.70;71.30;;;;;;5034007;28;21084;-51
2023/08/05 08:04:18;;;;;;;7.07;4.90;;;20.70;71.40;;;;;;5030057;28;20076;-51
2023/08/05 08:06:45;;;;;;;5.95;4.28;;;20.70;71.30;;;;;;5033316;28;20061;-54
2023/08/05 08:09:13;;;;;;;5.30;3.00;;;20.70;71.70;;;;;;5030563;28;20132;-51
2023/08/05 08:11:38;;;;;;;4.25;2.97;;;20.70;71.50;;;;;;5030995;28;20083;-53
2023/08/05 08:14:04;;;;;;;3.55;2.40;;;20.70;71.90;;;;;;5033264;28;20037;-53
2023/08/05 08:16:31;;;;;;;3.17;2.13;;;20.70;71.40;;;;;;5035500;28;20048;-52
2023/08/05 08:18:57;;;;;;;3.65;2.25;;;20.60;71.10;;;;;;5035810;28;20033;-52
2023/08/05 08:21:22;;;;;;;4.13;2.17;;;20.60;71.30;;;;;;5033057;28;20035;-52
2023/08/05 08:23:48;;;;;;;4.25;2.33;;;20.50;71.10;;;;;;5030625;28;20053;-51
2023/08/05 08:26:13;;;;;;;2.92;2.13;;;20.60;71.30;;;;;;5030488;28;20044;-53
2023/08/05 08:28:39;;;;;;;3.92;2.28;;;20.60;71.00;;;;;;5033964;28;20206;-51
2023/08/05 08:31:04;;;;;;;3.08;2.28;;;20.60;71.00;;;;;;5034795;28;20179;-53
2023/08/05 08:33:30;;;;;;;4.63;2.65;;;20.60;71.10;;;;;;5033438;28;20033;-53
2023/08/05 08:35:55;;;;;;;3.88;2.50;;;20.60;71.80;;;;;;5029496;28;20417;-52
2023/08/05 08:38:24;;;;;;;4.00;3.00;;;20.60;71.50;;;;;;5034227;28;20730;-53
2023/08/05 08:40:58;;;;;;;2.75;2.40;;;20.60;71.10;;;;;;5030951;28;20127;-53
2023/08/05 08:43:23;;;;;;;2.63;2.40;;;20.60;71.10;;;;;;5032669;28;20086;-51
2023/08/05 08:45:53;;;;;;;5.22;2.53;;;20.70;71.70;;;;;;5035778;28;20592;-52
2023/08/05 08:48:19;;;;;;;7.50;2.65;;;20.60;71.20;;;;;;5032686;28;20108;-52
2023/08/05 08:50:46;;;;;;;12.27;5.68;;;20.60;71.10;;;;;;5031064;28;20057;-53
2023/08/05 08:53:15;;;;;;;19.13;6.55;;;20.60;71.60;;;;;;5034351;28;20095;-52
2023/08/05 08:55:41;;;;;;;26.73;11.13;;;20.60;71.40;;;;;;5032781;28;20026;-55
2023/08/05 08:58:07;;;;;;;70.50;23.92;;;20.60;71.20;;;;;;5036180;28;20049;-51
2023/08/05 09:00:34;;;;;;;69.68;22.23;;;20.70;71.60;;;;;;5033975;28;20025;-53
2023/08/05 09:03:00;;;;;;;54.53;19.13;;;20.70;71.50;;;;;;5034864;28;20052;-54
2023/08/05 09:05:32;;;;;;;25.05;9.10;;;20.80;71.60;;;;;;5032517;28;20095;-51
2023/08/05 09:08:00;;;;;;;21.95;8.13;;;20.70;71.60;;;;;;5019749;28;20036;-51
2023/08/05 09:10:25;;;;;;;23.13;7.28;;;20.60;71.30;;;;;;5036422;28;20444;-54
2023/08/05 09:12:51;;;;;;;23.73;7.40;;;20.70;71.50;;;;;;5035751;28;20037;-54
2023/08/05 09:15:17;;;;;;;22.02;7.57;;;20.70;71.40;;;;;;5037488;28;20613;-50
2023/08/05 09:17:44;;;;;;;9.30;4.53;;;20.70;71.30;;;;;;5034192;28;20715;-52
2023/08/05 09:20:16;;;;;;;8.02;3.70;;;20.60;70.80;;;;;;5035564;28;20660;-52
2023/08/05 09:22:53;;;;;;;8.27;3.70;;;20.60;71.60;;;;;;5032229;28;20640;-51
2023/08/05 09:25:18;;;;;;;6.35;3.45;;;20.60;71.70;;;;;;5045549;28;20037;-51
2023/08/05 09:27:46;;;;;;;9.63;4.18;;;20.60;70.90;;;;;;5029524;28;20029;-54
2023/08/05 09:30:17;;;;;;;6.78;3.58;;;20.60;71.20;;;;;;5035374;28;20033;-51
2023/08/05 09:32:46;;;;;;;10.70;4.28;;;20.60;70.80;;;;;;5039254;28;20406;-52
2023/08/05 09:35:16;;;;;;;7.55;3.67;;;20.50;70.70;;;;;;5038569;28;20026;-51
2023/08/05 09:37:49;;;;;;;5.18;3.30;;;20.50;70.90;;;;;;5034123;28;20048;-52
2023/08/05 09:40:19;;;;;;;6.65;3.33;;;20.60;71.00;;;;;;5037858;28;20114;-52
2023/08/05 09:42:54;;;;;;;7.47;3.30;;;20.60;70.90;;;;;;5037423;28;20131;-51
2023/08/05 09:45:21;;;;;;;7.07;3.40;;;20.60;70.70;;;;;;5039335;28;20036;-51
2023/08/05 09:47:48;;;;;;;6.68;3.00;;;20.50;69.90;;;;;;5036606;28;20032;-49
2023/08/05 09:50:15;;;;;;;5.00;3.08;;;20.60;70.60;;;;;;5036112;28;20029;-53
2023/08/05 09:52:41;;;;;;;4.72;3.03;;;20.50;69.20;;;;;;5044782;28;20047;-51
2023/08/05 09:55:12;;;;;;;2.95;2.42;;;20.50;69.50;;;;;;5036323;28;20044;-52
2023/08/05 09:57:38;;;;;;;4.93;2.95;;;20.50;70.30;;;;;;5036068;28;20409;-51
2023/08/05 10:00:08;;;;;;;4.60;2.58;;;20.40;69.80;;;;;;5036575;28;20147;-51
2023/08/05 10:02:35;;;;;;;4.53;2.33;;;20.40;69.70;;;;;;5019340;28;20029;-50
2023/08/05 10:05:01;;;;;;;4.07;2.67;;;20.50;70.50;;;;;;5032000;28;20591;-53
2023/08/05 10:07:29;;;;;;;7.85;2.55;;;20.50;70.60;;;;;;5036222;28;20115;-52
2023/08/05 10:09:55;;;;;;;4.57;2.25;;;20.50;70.40;;;;;;5033368;28;20099;-53
2023/08/05 10:12:36;;;;;;;3.95;2.47;;;20.50;70.30;;;;;;5036213;28;20041;-51
2023/08/05 10:15:03;;;;;;;3.25;2.17;;;20.40;69.00;;;;;;5032131;28;20079;-51
2023/08/05 10:17:29;;;;;;;4.55;2.80;;;20.40;70.50;;;;;;5034065;28;20063;-51
2023/08/05 10:19:54;;;;;;;4.38;2.88;;;20.50;70.30;;;;;;5036204;28;20398;-51
2023/08/05 10:22:22;;;;;;;5.40;2.63;;;20.40;69.90;;;;;;5031307;28;20033;-54
2023/08/05 10:25:08;;;;;;;4.72;3.00;;;20.40;70.50;;;;;;5032987;28;20044;-54
2023/08/05 10:27:38;;;;;;;3.72;2.70;;;20.50;70.40;;;;;;5029358;28;20025;-54
2023/08/05 10:30:15;;;;;;;3.75;2.83;;;20.40;69.80;;;;;;5031310;28;20166;-51
2023/08/05 10:32:54;;;;;;;6.10;2.58;;;20.40;70.40;;;;;;5032830;28;20033;-51
2023/08/05 10:35:38;;;;;;;2.50;2.30;;;20.50;70.20;;;;;;5026994;28;20670;-54
2023/08/05 10:38:24;;;;;;;3.17;2.17;;;20.50;69.90;;;;;;5034553;28;20029;-55
2023/08/05 10:41:00;;;;;;;;;;;20.50;70.70;;;;;;5034130;28;20422;-51
2023/08/05 10:43:31;;;;;;;5.13;2.42;;;20.60;70.60;;;;;;5036451;28;20736;-52
2023/08/05 10:46:05;;;;;;;3.33;2.30;;;20.60;70.40;;;;;;5055819;28;20091;-51
2023/08/05 10:48:49;;;;;;;6.55;3.40;;;20.60;69.90;;;;;;5034532;28;20108;-51
2023/08/05 10:51:20;;;;;;;2.63;2.00;;;20.50;69.50;;;;;;5037639;28;20083;-50
2023/08/05 10:53:51;;;;;;;2.75;2.03;;;20.50;70.30;;;;;;5032596;28;20052;-51
2023/08/05 10:56:17;;;;;;;2.47;2.08;;;20.60;70.60;;;;;;5038199;28;20045;-51
2023/08/05 10:58:50;;;;;;;3.40;2.05;;;20.60;70.60;;;;;;5038783;28;20123;-52
2023/08/05 11:01:16;;;;;;;3.50;2.38;;;20.60;70.50;;;;;;5038848;28;20037;-50
2023/08/05 11:03:56;;;;;;;2.30;1.67;;;20.50;69.60;;;;;;5037675;28;20041;-52
2023/08/05 11:06:23;;;;;;;3.97;2.67;;;20.50;69.90;;;;;;5037634;28;20048;-50
2023/08/05 11:08:49;;;;;;;3.35;1.98;;;20.40;69.60;;;;;;5032083;28;20040;-52
2023/08/05 11:11:15;;;;;;;2.63;2.10;;;20.50;70.20;;;;;;5035247;28;20398;-51
2023/08/05 11:13:45;;;;;;;3.50;2.58;;;20.50;70.10;;;;;;5036718;28;20508;-52
2023/08/05 11:16:12;;;;;;;4.20;2.30;;;20.60;70.20;;;;;;5035136;28;20550;-52
2023/08/05 11:18:39;;;;;;;2.85;2.30;;;20.60;70.30;;;;;;5035929;28;20110;-53
2023/08/05 11:21:07;;;;;;;2.65;2.20;;;20.60;69.90;;;;;;5032602;28;20041;-52
2023/08/05 11:23:34;;;;;;;2.47;2.00;;;20.60;70.30;;;;;;5024775;28;20028;-53
2023/08/05 11:26:01;;;;;;;2.97;1.92;;;20.70;70.20;;;;;;5034440;28;20507;-51
2023/08/05 11:28:27;;;;;;;2.40;1.98;;;20.60;69.80;;;;;;5032455;28;20033;-50
2023/08/05 11:30:54;;;;;;;4.25;2.05;;;20.60;70.20;;;;;;5037415;28;20110;-51
2023/08/05 11:33:21;;;;;;;4.95;2.70;;;20.60;70.00;;;;;;5038656;28;20108;-53
2023/08/05 11:35:47;;;;;;;4.43;2.40;;;20.50;70.20;;;;;;5037815;28;20025;-51
2023/08/05 11:38:17;;;;;;;5.78;2.10;;;20.50;69.80;;;;;;5035753;28;20032;-53
2023/08/05 11:40:44;;;;;;;2.03;1.83;;;20.50;70.60;;;;;;5034499;28;20490;-51
2023/08/05 11:43:14;;;;;;;3.40;2.25;;;20.60;71.10;;;;;;5031928;28;20283;-51
2023/08/05 11:45:40;;;;;;;10.82;5.43;;;20.60;71.60;;;;;;5029763;28;20040;-51
2023/08/05 11:48:17;;;;;;;27.15;9.07;;;20.70;71.70;;;;;;5033814;28;20037;-52
2023/08/05 11:50:43;;;;;;;47.45;16.55;;;20.70;72.20;;;;;;5033470;28;20025;-52
2023/08/05 11:53:09;;;;;;;64.20;24.35;;;20.70;72.00;;;;;;5036780;28;20037;-54
2023/08/05 11:55:39;;;;;;;59.38;25.45;;;20.70;72.80;;;;;;5032281;28;20116;-52
2023/08/05 11:58:06;;;;;;;43.40;18.48;;;20.80;73.70;;;;;;5025264;28;20033;-52
2023/08/05 12:00:32;;;;;;;56.80;23.27;;;20.70;73.00;;;;;;5020103;28;20124;-51
2023/08/05 12:02:57;;;;;;;77.47;35.33;;;20.60;71.20;;;;;;5035759;28;20032;-51
2023/08/05 12:05:23;;;;;;;96.25;47.45;;;20.60;73.40;;;;;;5033927;28;20040;-51
2023/08/05 12:07:49;;;;;;;118.05;53.45;;;20.70;75.30;;;;;;5030714;28;20033;-55
2023/08/05 12:10:19;;;;;;;172.85;90.18;;;20.80;74.90;;;;;;5034312;28;20024;-52
2023/08/05 12:12:47;;;;;;;163.40;89.60;;;20.80;75.20;;;;;;5019652;28;20209;-52
2023/08/05 12:15:26;;;;;;;96.35;49.78;;;20.80;77.00;;;;;;5035470;28;20494;-52
2023/08/05 12:17:57;;;;;;;134.32;58.58;;;20.80;73.70;;;;;;5033142;28;20029;-52
2023/08/05 12:20:23;;;;;;;68.75;34.97;;;20.90;76.30;;;;;;5032181;28;20093;-51
2023/08/05 12:22:50;;;;;;;80.68;37.28;;;20.90;75.80;;;;;;5032526;28;20170;-54
2023/08/05 12:25:16;;;;;;;62.22;29.23;;;20.90;75.60;;;;;;5027229;28;20025;-54
2023/08/05 12:27:42;;;;;;;48.15;23.55;;;20.90;74.30;;;;;;5032668;28;20044;-51
2023/08/05 12:30:09;;;;;;;60.63;26.63;;;20.90;74.40;;;;;;5033255;28;20026;-53
2023/08/05 12:32:34;;;;;;;52.00;22.30;;;20.80;74.00;;;;;;5032709;28;20036;-50
2023/08/05 12:35:04;;;;;;;34.55;17.27;;;20.90;73.70;;;;;;5034282;28;20033;-54
2023/08/05 12:37:30;;;;;;;17.58;10.10;;;20.80;73.20;;;;;;5034630;28;20136;-53
2023/08/05 12:39:56;;;;;;;11.00;6.45;;;20.80;72.10;;;;;;5032146;28;22755;-53
2023/08/05 12:42:21;;;;;;;12.35;6.78;;;20.70;71.30;;;;;;5037924;28;20029;-51
2023/08/05 12:44:47;;;;;;;12.82;5.75;;;20.70;71.90;;;;;;5027021;28;20053;-52